Time;durP1;ratioP1;P1;durP2;ratioP2;P2;SDS_P1;SDS_P2;PMS_P1;PMS_P2;Temp;Humidity;BMP_temperature;BMP_pressure;BME280_temperature;BME280_humidity;BME280_pressure;Samples;Min_cycle;Max_cycle;Signal;HPM_P1;HPM_P2
2022/06/06 07:10:16;;;;;;;5.78;3.45;;;;;;;20.38;92.79;99208.78;5125734;27;20093;-85
2022/06/06 07:13:09;;;;;;;7.32;3.30;;;;;;;20.34;95.30;99213.16;5127509;28;20417;-85
2022/06/06 07:15:45;;;;;;;8.07;3.35;;;;;;;20.40;95.08;99201.13;5099532;27;20499;-85
2022/06/06 07:18:15;;;;;;;3.45;2.70;;;;;;;20.63;92.29;99199.31;5112688;28;20045;-86
2022/06/06 07:20:46;;;;;;;4.20;2.72;;;;;;;20.68;90.71;99191.13;5129786;27;20067;-85
2022/06/06 07:23:15;;;;;;;5.45;3.10;;;;;;;21.33;85.43;99206.25;5128033;27;20048;-86
2022/06/06 07:25:44;;;;;;;4.00;2.97;;;;;;;21.12;85.74;99188.53;5125379;27;20051;-84
2022/06/06 07:28:13;;;;;;;6.47;2.78;;;;;;;21.11;88.34;99184.06;5130491;27;20042;-86
2022/06/06 07:30:44;;;;;;;4.97;3.00;;;;;;;21.01;86.96;99200.50;5126302;27;20054;-86
2022/06/06 07:33:25;;;;;;;4.53;3.25;;;;;;;20.90;90.93;99206.97;5118002;27;20073;-86
2022/06/06 07:36:05;;;;;;;4.95;2.60;;;;;;;20.45;90.13;99203.13;5123655;28;20047;-86
2022/06/06 07:38:45;;;;;;;4.68;3.25;;;;;;;20.35;89.68;99217.56;5118750;28;20062;-86
2022/06/06 07:41:16;;;;;;;;;;;;;;;20.33;87.57;99192.97;5126202;28;20047;-86
2022/06/06 07:43:55;;;;;;;3.60;2.85;;;;;;;20.50;86.00;99195.78;5127785;27;19920;-86
2022/06/06 07:46:32;;;;;;;4.63;2.80;;;;;;;20.74;86.26;99181.81;5120157;27;20189;-85
2022/06/06 07:49:05;;;;;;;3.70;2.65;;;;;;;20.69;86.68;99185.34;5140102;27;20439;-85
2022/06/06 07:51:43;;;;;;;6.50;3.22;;;;;;;20.32;90.11;99179.41;5134617;27;20101;-85
2022/06/06 07:54:22;;;;;;;4.28;2.70;;;;;;;20.45;93.31;99179.13;5147689;27;20057;-86
2022/06/06 07:56:56;;;;;;;6.57;3.50;;;;;;;20.40;93.80;99186.47;5142185;28;20111;-85
2022/06/06 07:59:36;;;;;;;5.38;3.13;;;;;;;20.16;95.22;99170.03;5133829;27;20659;-87
2022/06/06 08:02:34;;;;;;;4.55;3.70;;;;;;;20.10;90.21;99182.91;5134901;27;20418;-86
2022/06/06 08:05:13;;;;;;;4.65;3.20;;;;;;;20.26;95.11;99177.66;5131813;28;20139;-86
2022/06/06 08:07:50;;;;;;;5.18;2.85;;;;;;;20.21;90.12;99155.50;5128046;28;20067;-87
2022/06/06 08:10:25;;;;;;;4.35;3.67;;;;;;;20.56;89.94;99151.69;5130972;27;20043;-86
2022/06/06 08:13:07;;;;;;;4.65;3.35;;;;;;;20.97;92.76;99179.97;5121505;27;20065;-87
2022/06/06 08:15:50;;;;;;;7.72;2.85;;;;;;;21.13;88.99;99162.53;5107476;28;20442;-88
2022/06/06 08:19:00;;;;;;;4.35;2.58;;;;;;;21.08;88.06;99161.66;5099249;28;20070;-87
2022/06/06 08:21:34;;;;;;;5.20;2.80;;;;;;;21.09;85.56;99175.22;5108799;28;20139;-88
2022/06/06 08:24:05;;;;;;;3.00;2.38;;;;;;;21.12;90.53;99180.22;5110708;28;20293;-88
2022/06/06 08:26:37;;;;;;;6.03;2.85;;;;;;;20.88;86.27;99178.72;5115121;28;20047;-88
2022/06/06 08:29:06;;;;;;;8.00;3.28;;;;;;;21.08;85.14;99176.28;5115870;28;20043;-88
2022/06/06 08:31:33;;;;;;;4.03;2.90;;;;;;;21.00;83.08;99155.44;5114966;28;20508;-88
2022/06/06 08:34:00;;;;;;;4.40;2.75;;;;;;;21.05;85.18;99149.16;5112854;28;20043;-88
2022/06/06 08:36:40;;;;;;;4.18;2.80;;;;;;;21.37;81.47;99179.72;5108874;28;20125;-85
2022/06/06 08:39:20;;;;;;;4.38;2.70;;;;;;;21.26;81.53;99141.13;5117873;27;20057;-88
2022/06/06 08:42:11;;;;;;;8.10;3.05;;;;;;;21.74;89.33;99137.63;5116545;27;20043;-88
2022/06/06 08:44:51;;;;;;;3.85;2.65;;;;;;;21.95;78.16;99153.63;5103363;28;20049;-88
2022/06/06 08:47:30;;;;;;;4.32;2.60;;;;;;;22.24;75.72;99149.50;5112572;27;20054;-89
2022/06/06 08:53:50;;;;;;;7.72;3.17;;;;;;;22.54;74.38;99158.41;5107231;27;20054;-86
2022/06/06 08:56:37;;;;;;;5.35;2.80;;;;;;;22.35;78.22;99146.88;5107611;27;20044;-85
2022/06/06 08:59:40;;;;;;;4.28;2.85;;;;;;;22.39;73.81;99126.69;5111756;27;20044;-85
2022/06/06 09:02:32;;;;;;;3.28;2.90;;;;;;;22.34;76.96;99153.50;5104496;28;20071;-85
2022/06/06 09:05:19;;;;;;;3.40;2.63;;;;;;;22.37;75.26;99148.28;5114084;28;20082;-84
2022/06/06 09:08:18;;;;;;;7.20;2.85;;;;;;;22.22;75.25;99142.56;5114712;27;20390;-86
2022/06/06 09:11:21;;;;;;;3.70;2.25;;;;;;;22.20;74.87;99158.59;5111557;27;20383;-87
2022/06/06 09:14:23;;;;;;;5.88;2.75;;;;;;;21.64;77.35;99143.06;5095610;28;20107;-86
2022/06/06 09:17:19;;;;;;;2.92;2.50;;;;;;;21.65;84.01;99136.44;5106542;28;20056;-86
2022/06/06 09:20:20;;;;;;;6.95;3.08;;;;;;;21.98;78.11;99136.50;5108886;27;20047;-87
2022/06/06 09:23:08;;;;;;;4.40;3.00;;;;;;;22.35;81.74;99135.78;5109241;28;20471;-86
2022/06/06 09:25:38;;;;;;;2.83;2.35;;;;;;;22.79;77.92;99135.59;5107035;28;20147;-86
2022/06/06 09:28:48;;;;;;;4.78;2.58;;;;;;;22.89;73.14;99140.38;5114196;28;20558;-84
2022/06/06 09:31:48;;;;;;;3.65;2.40;;;;;;;23.24;69.16;99133.41;5070590;28;20048;-90
2022/06/06 09:35:03;;;;;;;2.30;1.95;;;;;;;23.28;67.58;99127.03;5060924;28;20105;-88
2022/06/06 09:37:38;;;;;;;5.13;2.75;;;;;;;23.02;68.34;99123.28;5061517;28;20076;-89
2022/06/06 09:40:19;;;;;;;3.30;2.38;;;;;;;23.25;69.35;99105.41;5097728;28;20054;-88
2022/06/06 09:43:09;;;;;;;5.13;1.90;;;;;;;23.49;66.53;99105.78;5115113;28;20100;-89
2022/06/06 09:45:47;;;;;;;;;;;;;;;23.60;63.98;99123.28;5095179;28;20063;-89
2022/06/06 09:49:04;;;;;;;4.00;2.50;;;;;;;23.70;64.19;99111.41;5095131;28;19981;-89
2022/06/06 09:52:03;;;;;;;6.07;1.95;;;;;;;23.47;67.30;99104.38;5094704;28;20056;-89
2022/06/06 10:01:34;;;;;;;2.85;1.67;;;;;;;23.62;60.86;99110.00;5083928;28;20540;-84
2022/06/06 10:04:27;;;;;;;1.65;1.52;;;;;;;23.26;57.64;99096.00;5123326;27;20040;-88
2022/06/06 10:07:26;;;;;;;2.10;1.85;;;;;;;23.08;58.18;99093.63;5093053;28;20071;-88
2022/06/06 10:10:28;;;;;;;4.00;1.88;;;;;;;23.68;59.41;99100.59;5114647;28;20447;-89
2022/06/06 10:13:39;;;;;;;4.35;1.90;;;;;;;23.72;57.41;99064.78;5114785;28;20048;-89
2022/06/06 10:16:21;;;;;;;4.20;1.50;;;;;;;23.82;56.32;99087.00;5094367;28;20055;-89
2022/06/06 10:19:06;;;;;;;1.98;1.77;;;;;;;24.03;55.75;99071.25;5094117;28;20044;-89
2022/06/06 10:21:56;;;;;;;4.40;1.83;;;;;;;24.29;56.77;99062.13;5107798;28;20074;-88
2022/06/06 10:24:46;;;;;;;;;;;;;;;24.69;53.66;99088.22;5114731;28;20420;-90
2022/06/06 10:27:26;;;;;;;2.15;1.50;;;;;;;23.89;57.86;99063.75;5098829;28;19920;-89
2022/06/06 10:30:12;;;;;;;2.90;1.67;;;;;;;23.41;57.99;99066.63;5114751;28;20130;-91
2022/06/06 10:33:06;;;;;;;3.88;2.03;;;;;;;23.18;63.19;99090.13;5116030;28;20542;-90
2022/06/06 10:35:52;;;;;;;2.33;1.70;;;;;;;22.71;62.84;99061.28;5115247;28;20062;-91
2022/06/06 10:38:39;;;;;;;2.40;1.60;;;;;;;22.16;62.39;99077.16;5114597;28;20130;-91
2022/06/06 10:41:13;;;;;;;1.92;1.65;;;;;;;21.96;68.23;99091.66;5114425;28;20058;-92
2022/06/06 10:44:00;;;;;;;1.92;1.58;;;;;;;21.66;69.34;99093.00;5115645;28;20494;-92
2022/06/06 10:46:36;;;;;;;7.38;2.10;;;;;;;21.11;77.06;99064.41;5115710;28;20051;-94
2022/06/06 10:49:21;;;;;;;4.30;1.80;;;;;;;21.12;81.91;99099.22;5116167;28;20060;-92
2022/06/06 10:52:30;;;;;;;4.93;2.20;;;;;;;21.11;84.65;99061.63;5116305;27;20059;-95
2022/06/06 10:55:33;;;;;;;4.30;1.88;;;;;;;21.36;76.03;99059.19;5115566;28;20505;-94
2022/06/06 10:58:44;;;;;;;2.15;1.85;;;;;;;21.87;75.87;99056.13;5109072;28;20055;-92
2022/06/06 11:01:43;;;;;;;4.47;2.22;;;;;;;22.28;68.71;99059.28;5115292;28;20510;-92
2022/06/06 11:04:45;;;;;;;3.30;1.80;;;;;;;23.25;71.50;99080.44;5109716;28;20165;-92
2022/06/06 11:07:46;;;;;;;2.53;1.70;;;;;;;23.51;59.78;99030.59;5115374;28;20127;-93
2022/06/06 11:10:32;;;;;;;1.75;1.65;;;;;;;23.80;59.14;99049.53;5115106;28;20055;-90
2022/06/06 11:13:17;;;;;;;2.20;1.27;;;;;;;24.11;54.21;99044.06;5114926;28;20058;-91
2022/06/06 11:16:15;;;;;;;2.03;1.40;;;;;;;23.63;57.57;99047.84;5114377;28;20493;-91
2022/06/06 11:19:03;;;;;;;1.95;1.30;;;;;;;23.91;58.54;99058.72;5070538;28;20060;-92
2022/06/06 11:22:09;;;;;;;4.68;1.50;;;;;;;23.88;53.98;99023.19;5094480;28;20055;-92
2022/06/06 11:24:43;;;;;;;2.13;1.45;;;;;;;24.11;52.17;99021.84;5098394;28;20040;-89
2022/06/06 11:27:34;;;;;;;3.78;1.35;;;;;;;24.37;55.04;99056.84;5114403;28;20101;-92
2022/06/06 11:30:17;;;;;;;1.77;1.25;;;;;;;24.08;51.96;99026.00;5114238;28;20077;-91
2022/06/06 11:33:36;;;;;;;2.63;1.13;;;;;;;24.80;50.96;99045.41;5114072;28;20134;-90
2022/06/06 11:36:33;;;;;;;2.08;1.30;;;;;;;24.71;47.95;99034.00;5113624;28;20056;-89
2022/06/06 11:39:27;;;;;;;2.88;1.23;;;;;;;24.64;47.16;99035.44;5112827;28;20482;-88
2022/06/06 11:42:21;;;;;;;1.85;1.00;;;;;;;24.78;47.21;99030.09;5099297;28;20047;-89
2022/06/06 11:45:13;;;;;;;2.63;1.92;;;;;;;24.65;51.22;99007.34;5118001;28;20047;-88
2022/06/06 11:47:53;;;;;;;4.47;1.40;;;;;;;25.17;48.46;99015.50;5114154;27;20066;-88
2022/06/06 11:50:42;;;;;;;5.22;1.50;;;;;;;25.44;47.73;98999.28;5114255;28;20127;-87
2022/06/06 11:53:31;;;;;;;1.45;1.08;;;;;;;25.11;47.16;98995.22;5116113;28;20051;-88
2022/06/06 11:56:08;;;;;;;2.15;1.20;;;;;;;24.83;47.87;98993.97;5116716;28;20051;-88
2022/06/06 11:59:00;;;;;;;3.38;1.45;;;;;;;25.26;45.78;98988.75;5116866;28;20043;-88
2022/06/06 12:01:46;;;;;;;1.80;1.15;;;;;;;24.78;47.39;99013.44;5116992;27;20043;-88
2022/06/06 12:05:04;;;;;;;1.80;1.10;;;;;;;24.47;46.44;99021.81;5134917;27;20063;-87
2022/06/06 12:07:55;;;;;;;2.67;1.08;;;;;;;23.97;50.10;99018.78;5136205;27;20073;-86
2022/06/06 12:10:25;;;;;;;2.33;1.00;;;;;;;23.75;49.52;99021.78;5123613;27;20131;-88
2022/06/06 12:13:28;;;;;;;1.33;1.00;;;;;;;23.72;50.83;99009.28;5114498;28;20043;-88
2022/06/06 12:16:32;;;;;;;3.15;1.10;;;;;;;24.03;50.24;99012.94;5115264;28;20147;-88
2022/06/06 12:19:20;;;;;;;3.22;1.23;;;;;;;23.84;50.28;99006.25;5101818;27;20054;-88
2022/06/06 12:21:55;;;;;;;2.45;1.05;;;;;;;23.95;49.42;98999.63;5114908;28;20146;-88
2022/06/06 12:24:57;;;;;;;3.78;1.38;;;;;;;23.78;49.98;99005.41;5113905;28;20530;-88
2022/06/06 12:27:30;;;;;;;2.92;1.00;;;;;;;23.74;52.71;99012.63;5113739;27;20048;-87
2022/06/06 12:30:10;;;;;;;1.65;1.20;;;;;;;23.54;53.84;98984.84;5114497;28;20047;-87
2022/06/06 12:32:51;;;;;;;3.17;1.42;;;;;;;23.56;57.93;98982.63;5114303;27;20067;-88
2022/06/06 12:35:22;;;;;;;1.90;1.40;;;;;;;23.36;54.27;98977.88;5115355;27;20047;-87
2022/06/06 12:38:06;;;;;;;7.32;1.20;;;;;;;23.11;53.05;98996.94;5114613;28;20150;-87
2022/06/06 12:40:47;;;;;;;4.85;1.52;;;;;;;22.83;54.31;98975.16;5114234;28;20104;-87
2022/06/06 12:43:42;;;;;;;2.47;1.35;;;;;;;23.13;54.72;98978.06;5114214;27;20074;-88
2022/06/06 12:46:28;;;;;;;5.10;1.50;;;;;;;23.42;53.25;98997.00;5113026;28;20086;-87
2022/06/06 12:49:19;;;;;;;1.75;1.17;;;;;;;23.36;52.04;98998.09;5110677;28;20479;-86
2022/06/06 12:52:01;;;;;;;1.58;0.98;;;;;;;23.59;50.05;98999.56;5114722;28;20056;-85
2022/06/06 12:57:38;;;;;;;1.48;1.15;;;;;;;24.32;48.96;98989.34;5096585;28;20491;-85
2022/06/06 13:00:08;;;;;;;4.40;0.98;;;;;;;24.20;49.56;98992.41;5114271;28;20054;-87
2022/06/06 13:02:56;;;;;;;2.88;1.25;;;;;;;23.97;48.84;98991.03;5111993;28;20039;-87
2022/06/06 13:05:37;;;;;;;1.67;1.20;;;;;;;24.14;52.45;98993.50;5112948;28;20093;-87
2022/06/06 13:08:25;;;;;;;1.90;1.27;;;;;;;23.67;48.53;98987.09;5113568;28;20108;-87
2022/06/06 13:11:03;;;;;;;1.98;1.30;;;;;;;23.54;52.65;98993.16;5129705;27;20512;-87
2022/06/06 13:13:45;;;;;;;1.20;1.00;;;;;;;23.31;52.59;98981.47;5114251;27;20060;-87
2022/06/06 13:16:29;;;;;;;4.00;1.45;;;;;;;23.27;55.08;98985.88;5114146;28;20071;-87
2022/06/06 13:19:14;;;;;;;3.92;1.27;;;;;;;22.96;51.97;98989.34;5114302;28;20475;-87
2022/06/06 13:21:59;;;;;;;3.45;1.00;;;;;;;22.73;53.09;99001.72;5113574;28;20082;-87
2022/06/06 13:24:49;;;;;;;3.70;1.13;;;;;;;22.59;51.94;98992.22;5111608;28;20039;-86
2022/06/06 13:27:21;;;;;;;3.80;1.42;;;;;;;22.37;53.93;98992.34;5113813;27;20070;-87
2022/06/06 13:29:48;;;;;;;3.38;1.30;;;;;;;22.31;53.85;98998.94;5113561;28;20051;-87
2022/06/06 13:32:31;;;;;;;5.28;1.50;;;;;;;22.40;55.50;98989.03;5113018;28;20496;-87
2022/06/06 13:35:13;;;;;;;2.38;1.58;;;;;;;22.17;53.97;99002.16;5114017;28;20134;-87
2022/06/06 13:37:58;;;;;;;3.38;1.15;;;;;;;22.06;53.28;98990.16;5093581;28;20514;-87
2022/06/06 13:40:43;;;;;;;4.93;1.40;;;;;;;22.01;53.68;99012.28;5104400;28;20120;-87
2022/06/06 13:43:35;;;;;;;2.35;1.25;;;;;;;21.66;52.07;98971.28;5108770;28;20047;-88
2022/06/06 13:46:27;;;;;;;5.05;1.27;;;;;;;21.85;56.73;99003.00;5104391;28;20055;-86
2022/06/06 13:49:19;;;;;;;1.77;1.20;;;;;;;21.89;56.42;99000.56;5106453;28;20505;-86
2022/06/06 13:52:05;;;;;;;1.42;1.30;;;;;;;21.84;58.72;98998.56;5113866;28;20074;-87
2022/06/06 13:54:35;;;;;;;3.28;1.40;;;;;;;21.85;61.28;98993.88;5136683;28;20023;-86
2022/06/06 13:57:24;;;;;;;3.28;1.40;;;;;;;21.98;61.12;98996.19;5134290;27;20039;-86
2022/06/06 14:00:19;;;;;;;1.67;1.20;;;;;;;22.15;61.66;98984.97;5130309;28;20023;-87
2022/06/06 14:02:57;;;;;;;4.25;1.40;;;;;;;22.28;59.97;98967.91;5093765;28;20650;-86
2022/06/06 14:06:01;;;;;;;2.90;1.40;;;;;;;22.51;60.58;98978.88;5106577;28;20071;-87
2022/06/06 14:08:50;;;;;;;1.80;1.58;;;;;;;22.55;58.69;98971.69;5106481;28;20070;-87
2022/06/06 14:11:31;;;;;;;2.07;1.33;;;;;;;22.63;57.56;98994.19;5112653;28;20047;-87
2022/06/06 14:14:00;;;;;;;5.03;1.30;;;;;;;22.33;53.72;98953.28;5111502;28;20043;-87
2022/06/06 14:16:31;;;;;;;2.60;1.10;;;;;;;22.24;52.36;98975.06;5096068;28;20044;-88
2022/06/06 14:19:09;;;;;;;5.00;1.73;;;;;;;22.19;51.11;98963.97;5118150;27;20147;-87
2022/06/06 14:21:38;;;;;;;2.95;1.33;;;;;;;22.17;52.63;98963.38;5113296;27;20082;-87
2022/06/06 14:24:11;;;;;;;1.58;1.27;;;;;;;22.20;50.16;98981.41;5111354;28;20093;-87
2022/06/06 14:26:41;;;;;;;1.33;1.23;;;;;;;22.15;52.09;98984.16;5108463;28;20143;-87
2022/06/06 14:29:12;;;;;;;1.75;1.00;;;;;;;22.01;53.32;98950.53;5091881;28;20079;-87
2022/06/06 14:31:44;;;;;;;4.35;1.60;;;;;;;21.85;51.10;98961.50;5092864;28;20048;-87
2022/06/06 14:34:22;;;;;;;2.30;1.20;;;;;;;21.74;51.48;98955.03;5112642;28;20422;-87
2022/06/06 14:37:31;;;;;;;2.20;1.13;;;;;;;21.73;53.10;98961.66;5127212;27;20043;-87
2022/06/06 14:40:01;;;;;;;3.50;1.30;;;;;;;21.76;55.01;98974.16;5104632;28;20163;-87
2022/06/06 14:42:33;;;;;;;1.92;1.20;;;;;;;21.77;55.51;98978.59;5111794;28;20058;-87
2022/06/06 14:45:04;;;;;;;3.38;1.25;;;;;;;21.56;57.75;98961.78;5104695;27;20480;-87
2022/06/06 14:47:33;;;;;;;4.90;1.33;;;;;;;21.61;58.30;98965.72;5113067;27;20051;-87
2022/06/06 14:53:03;;;;;;;2.03;1.35;;;;;;;21.77;55.92;98970.28;5110336;28;20125;-87
2022/06/06 14:55:33;;;;;;;4.47;1.23;;;;;;;21.80;55.82;98964.22;5111345;28;20569;-87
2022/06/06 14:58:08;;;;;;;3.30;1.40;;;;;;;21.94;58.40;98981.22;5109054;28;20055;-88
2022/06/06 15:00:39;;;;;;;1.52;1.00;;;;;;;21.89;53.63;98989.50;5109188;28;20542;-88
2022/06/06 15:03:08;;;;;;;1.67;1.13;;;;;;;21.68;54.17;98964.41;5114125;28;20395;-88
2022/06/06 15:05:36;;;;;;;;;;;;;;;21.79;54.49;98986.63;5102868;28;20044;-87
2022/06/06 15:08:15;;;;;;;1.83;1.30;;;;;;;21.61;53.88;98971.25;5102943;28;20381;-88
2022/06/06 15:10:47;;;;;;;1.63;1.17;;;;;;;21.56;56.27;98977.56;5133345;27;20055;-88
2022/06/06 15:13:16;;;;;;;1.60;1.02;;;;;;;21.29;54.11;98967.31;5106570;27;20047;-86
2022/06/06 15:15:46;;;;;;;1.58;1.15;;;;;;;21.53;56.07;98992.75;5106249;28;20035;-87
2022/06/06 15:18:22;;;;;;;2.28;1.23;;;;;;;21.66;57.27;98983.16;5096810;28;20135;-87
2022/06/06 15:20:53;;;;;;;1.40;1.15;;;;;;;21.75;57.56;98975.22;5092244;28;20048;-87
2022/06/06 15:23:27;;;;;;;2.25;1.13;;;;;;;21.93;55.28;98968.47;5097365;28;20489;-87
2022/06/06 15:25:59;;;;;;;4.90;1.30;;;;;;;22.12;55.04;98993.81;5122923;27;20047;-87
2022/06/06 15:28:35;;;;;;;5.30;1.40;;;;;;;22.39;55.50;98982.69;5108954;27;20115;-88
2022/06/06 15:31:10;;;;;;;2.22;1.20;;;;;;;22.34;54.11;98954.13;5113443;28;20375;-87
2022/06/06 15:33:49;;;;;;;3.38;1.38;;;;;;;22.62;54.87;98980.59;5121098;27;20072;-87
2022/06/06 15:36:31;;;;;;;4.25;2.22;;;;;;;22.42;53.92;98962.75;5116906;27;20083;-88
2022/06/06 15:39:18;;;;;;;56.75;17.85;;;;;;;22.33;54.46;98969.91;5113778;28;20073;-86
2022/06/06 15:41:52;;;;;;;63.78;25.52;;;;;;;22.14;56.07;98966.69;5112518;27;20047;-87
2022/06/06 15:44:41;;;;;;;103.35;45.88;;;;;;;22.39;58.31;98982.69;5113398;27;20459;-88
2022/06/06 15:47:18;;;;;;;24.25;12.77;;;;;;;22.08;57.67;98953.91;5106547;28;20109;-89
2022/06/06 15:50:15;;;;;;;42.60;24.15;;;;;;;22.08;56.69;98990.72;5116050;27;20051;-89
2022/06/06 15:52:56;;;;;;;19.55;11.25;;;;;;;21.94;58.09;98994.22;5108931;28;20043;-90
2022/06/06 15:55:31;;;;;;;47.42;26.23;;;;;;;21.84;59.16;98968.13;5102858;28;20047;-88
2022/06/06 15:58:26;;;;;;;9.82;6.00;;;;;;;21.74;56.23;98981.88;5108181;27;20059;-89
2022/06/06 16:01:03;;;;;;;8.00;3.40;;;;;;;21.54;57.56;98977.81;5118199;27;20054;-88
2022/06/06 16:03:53;;;;;;;7.30;1.85;;;;;;;21.59;57.15;98952.16;5112920;28;20070;-89
2022/06/06 16:06:24;;;;;;;4.53;2.33;;;;;;;21.60;60.19;98953.78;5108766;28;20533;-90
2022/06/06 16:09:03;;;;;;;3.72;1.95;;;;;;;21.54;58.58;98952.09;5107663;28;20051;-89
2022/06/06 16:11:44;;;;;;;9.10;1.80;;;;;;;21.62;57.22;98954.38;5115281;28;20055;-91
2022/06/06 16:14:27;;;;;;;3.15;1.48;;;;;;;21.62;57.74;98959.91;5117844;28;20069;-91
2022/06/06 16:16:57;;;;;;;4.30;2.92;;;;;;;21.43;57.80;98973.25;5109055;27;20505;-90
2022/06/06 16:19:34;;;;;;;3.90;1.60;;;;;;;21.09;60.59;98965.16;5114560;28;20070;-91
2022/06/06 16:22:09;;;;;;;4.15;1.50;;;;;;;20.85;60.15;98945.22;5112140;28;20088;-90
2022/06/06 16:24:48;;;;;;;1.80;1.25;;;;;;;21.01;60.84;98955.38;5112548;27;20051;-89
2022/06/06 16:27:20;;;;;;;2.30;1.23;;;;;;;20.94;62.73;98940.94;5114706;28;20468;-89
2022/06/06 16:29:54;;;;;;;3.75;1.60;;;;;;;20.81;61.46;98935.81;5114335;28;20059;-90
2022/06/06 16:32:41;;;;;;;4.03;1.48;;;;;;;20.95;63.88;98937.06;5114552;28;20052;-91
2022/06/06 16:35:32;;;;;;;2.60;1.42;;;;;;;20.94;63.72;98942.84;5111165;28;20101;-90
2022/06/06 16:38:07;;;;;;;1.30;1.20;;;;;;;20.96;64.57;98927.69;5113629;28;20078;-89
2022/06/06 16:40:46;;;;;;;3.55;1.52;;;;;;;20.88;63.72;98930.94;5113315;28;20104;-89
2022/06/06 16:49:36;;;;;;;2.00;1.20;;;;;;;21.17;65.47;98950.03;5113498;27;20138;-89
2022/06/06 16:52:14;;;;;;;1.90;1.30;;;;;;;21.03;66.02;98925.56;5113075;27;20066;-87
2022/06/06 16:54:53;;;;;;;1.75;1.38;;;;;;;20.93;65.75;98928.22;5111129;28;20047;-89
2022/06/06 16:57:27;;;;;;;4.50;1.73;;;;;;;21.11;65.82;98940.84;5105654;27;20135;-89
2022/06/06 17:00:02;;;;;;;3.13;1.58;;;;;;;21.10;65.75;98946.63;5109238;28;20056;-89
2022/06/06 17:02:44;;;;;;;3.05;1.58;;;;;;;21.02;67.58;98929.41;5112118;28;20101;-89
2022/06/06 17:07:45;;;;;;;1.38;1.27;;;;;;;21.18;64.83;98952.53;5109037;27;20402;-89
2022/06/06 17:08:30;;;;;;;1.63;1.27;;;;;;;21.04;62.69;98935.50;5112716;27;20097;-89
2022/06/06 17:11:01;;;;;;;;;;;;;;;21.18;62.83;98951.69;5108348;28;20060;-90
2022/06/06 17:13:37;;;;;;;1.52;1.33;;;;;;;20.91;63.67;98918.50;5112900;27;19964;-89
2022/06/06 17:16:31;;;;;;;1.80;1.33;;;;;;;21.07;64.68;98941.63;5107885;28;20044;-89
2022/06/06 17:19:00;;;;;;;3.70;1.55;;;;;;;20.98;65.57;98935.72;5093698;28;20052;-89
2022/06/06 17:21:44;;;;;;;2.00;1.33;;;;;;;20.74;63.35;98941.50;5102279;28;20040;-90
2022/06/06 17:24:33;;;;;;;2.28;1.55;;;;;;;20.82;64.49;98938.31;5100372;27;20058;-90
2022/06/06 17:27:03;;;;;;;2.78;1.33;;;;;;;20.69;65.70;98928.47;5109160;28;20047;-90
2022/06/06 17:29:52;;;;;;;3.53;1.50;;;;;;;20.58;65.95;98931.31;5114739;27;20055;-91
2022/06/06 17:32:25;;;;;;;3.28;1.40;;;;;;;20.57;68.61;98930.50;5109362;28;20055;-90
2022/06/06 17:35:19;;;;;;;1.42;1.25;;;;;;;20.49;69.02;98929.03;5113326;28;20131;-90
2022/06/06 17:38:12;;;;;;;4.00;1.63;;;;;;;20.56;66.09;98958.38;5123803;27;20055;-90
2022/06/06 17:40:55;;;;;;;3.60;1.30;;;;;;;20.51;68.72;98953.63;5093784;28;20059;-90
2022/06/06 17:43:32;;;;;;;2.40;1.30;;;;;;;20.42;67.18;98935.81;5110519;28;20071;-89
2022/06/06 17:46:05;;;;;;;2.47;1.30;;;;;;;20.46;66.55;98959.06;5112003;28;20451;-89
2022/06/06 17:48:50;;;;;;;1.95;1.50;;;;;;;20.28;70.32;98935.38;5112416;27;20110;-90
2022/06/06 17:51:28;;;;;;;3.72;1.35;;;;;;;20.35;69.17;98924.94;5111671;28;20069;-90
2022/06/06 17:54:17;;;;;;;2.97;1.50;;;;;;;20.27;69.38;98936.44;5111866;28;20051;-90
2022/06/06 17:56:53;;;;;;;2.65;1.60;;;;;;;20.35;70.42;98924.94;5100150;28;20486;-88
2022/06/06 17:59:41;;;;;;;2.78;1.40;;;;;;;20.29;69.93;98917.69;5123133;27;20079;-88
2022/06/06 18:02:59;;;;;;;2.30;1.30;;;;;;;20.38;70.31;98940.19;5123385;27;20380;-89
2022/06/06 18:05:47;;;;;;;2.38;1.63;;;;;;;20.55;71.38;98949.25;5106140;28;20300;-87
2022/06/06 18:08:48;;;;;;;4.75;1.50;;;;;;;20.46;66.81;98951.63;5109493;27;20047;-89
2022/06/06 18:11:26;;;;;;;2.13;1.05;;;;;;;20.51;69.05;98945.34;5113437;28;20055;-89
2022/06/06 18:14:06;;;;;;;3.53;1.73;;;;;;;20.48;71.33;98923.75;5108437;28;20051;-90
2022/06/06 18:16:54;;;;;;;1.73;1.10;;;;;;;20.42;68.71;98920.09;5115634;27;20047;-89
2022/06/06 18:19:26;;;;;;;3.10;1.17;;;;;;;20.44;67.51;98920.66;5114748;27;20488;-89
2022/06/06 18:21:55;;;;;;;2.10;1.30;;;;;;;20.45;66.38;98935.31;5112268;28;20138;-90
2022/06/06 18:24:27;;;;;;;2.53;1.50;;;;;;;20.43;65.62;98932.81;5103945;28;20047;-89
2022/06/06 18:27:00;;;;;;;3.42;1.05;;;;;;;20.36;65.71;98943.19;5113750;28;20048;-89
2022/06/06 18:29:37;;;;;;;3.80;1.30;;;;;;;20.48;66.65;98940.31;5118633;27;20062;-89
2022/06/06 18:32:07;;;;;;;1.80;1.20;;;;;;;20.36;66.45;98945.94;5106625;28;20411;-89
2022/06/06 18:34:42;;;;;;;2.53;1.10;;;;;;;20.33;65.86;98935.41;5117628;27;20571;-89
2022/06/06 18:37:17;;;;;;;1.15;1.00;;;;;;;20.39;68.31;98950.97;5112410;28;20487;-89
2022/06/06 18:39:52;;;;;;;2.78;1.00;;;;;;;20.26;67.90;98940.28;5112831;27;20059;-89
2022/06/06 18:42:25;;;;;;;5.78;2.00;;;;;;;20.14;64.01;98948.66;5112768;28;20047;-88
2022/06/06 18:44:55;;;;;;;3.38;1.25;;;;;;;20.19;67.60;98951.50;5117203;27;20043;-90
2022/06/06 18:47:32;;;;;;;3.63;1.60;;;;;;;19.95;65.51;98931.56;5098344;28;20043;-89
2022/06/06 18:49:59;;;;;;;3.67;1.92;;;;;;;19.96;66.98;98949.75;5103182;28;20074;-90
2022/06/06 18:52:32;;;;;;;2.30;1.15;;;;;;;19.95;66.62;98950.88;5103162;28;20054;-90
2022/06/06 18:55:01;;;;;;;3.15;1.50;;;;;;;19.65;67.28;98929.94;5112295;28;20093;-90
2022/06/06 18:57:31;;;;;;;2.15;1.30;;;;;;;19.67;67.76;98919.47;5108320;28;20118;-90
2022/06/06 19:00:02;;;;;;;4.15;1.40;;;;;;;19.45;68.20;98933.16;5105308;28;20083;-90
2022/06/06 19:02:36;;;;;;;5.88;1.40;;;;;;;19.45;68.14;98931.25;5115545;28;20059;-89
2022/06/06 19:05:07;;;;;;;3.92;1.00;;;;;;;19.47;70.05;98921.91;5112645;28;20052;-90
2022/06/06 19:07:36;;;;;;;2.72;1.40;;;;;;;19.45;69.01;98931.25;5110194;28;20048;-89
2022/06/06 19:10:15;;;;;;;4.57;1.20;;;;;;;19.43;70.46;98930.66;5111577;28;20172;-89
2022/06/06 19:12:59;;;;;;;1.35;1.10;;;;;;;19.58;73.10;98963.19;5111715;28;20056;-89
2022/06/06 19:15:32;;;;;;;1.15;0.80;;;;;;;19.44;72.47;98967.34;5092565;28;20105;-90
2022/06/06 19:18:13;;;;;;;1.60;1.00;;;;;;;19.26;74.93;98933.41;5110658;28;20065;-90
2022/06/06 19:20:48;;;;;;;6.82;1.15;;;;;;;19.18;74.82;98941.22;5109347;28;20623;-89
2022/06/06 19:23:19;;;;;;;1.95;1.48;;;;;;;19.16;72.51;98957.16;5112972;28;20482;-89
2022/06/06 19:25:54;;;;;;;1.75;1.08;;;;;;;19.20;73.65;98964.69;5107629;28;20076;-89
2022/06/06 19:28:27;;;;;;;4.25;1.50;;;;;;;19.12;73.95;98969.75;5106955;28;20521;-90
2022/06/06 19:30:54;;;;;;;1.10;0.98;;;;;;;19.02;71.21;98940.94;5109749;28;20490;-89
2022/06/06 19:33:24;;;;;;;1.27;1.17;;;;;;;18.99;74.42;98957.97;5106763;28;20501;-89
2022/06/06 19:36:01;;;;;;;4.05;2.00;;;;;;;18.78;77.04;98942.91;5110948;28;20100;-89
2022/06/06 19:38:28;;;;;;;1.60;1.48;;;;;;;18.72;81.95;98963.97;5103696;28;20048;-90
2022/06/06 19:40:58;;;;;;;1.70;1.35;;;;;;;18.67;80.70;98955.63;5118159;28;20379;-89
2022/06/06 19:43:31;;;;;;;1.92;1.20;;;;;;;18.49;82.08;98973.13;5104667;28;20134;-90
2022/06/06 19:46:03;;;;;;;1.80;1.30;;;;;;;18.36;82.88;98957.69;5111564;28;20048;-89
2022/06/06 19:48:41;;;;;;;1.70;1.48;;;;;;;18.21;83.37;98960.94;5113641;28;20059;-90
2022/06/06 19:51:17;;;;;;;4.00;1.02;;;;;;;18.14;83.99;98967.63;5121295;28;20066;-88
2022/06/06 19:53:49;;;;;;;2.75;1.27;;;;;;;17.92;85.06;98967.41;5114264;28;20060;-89
2022/06/06 19:56:22;;;;;;;1.30;1.00;;;;;;;17.80;87.25;98967.38;5120873;28;20679;-89
2022/06/06 19:58:52;;;;;;;2.20;1.25;;;;;;;17.66;87.89;98972.25;5139977;27;20087;-88
2022/06/06 20:01:23;;;;;;;1.67;1.20;;;;;;;17.56;89.53;98964.56;5135916;28;20069;-89
2022/06/06 20:03:56;;;;;;;2.78;1.40;;;;;;;17.63;88.65;98997.44;5135809;28;20042;-89
2022/06/06 20:06:28;;;;;;;3.40;1.23;;;;;;;17.52;90.23;98979.84;5120141;28;20071;-89
2022/06/06 20:09:00;;;;;;;1.77;1.00;;;;;;;17.43;93.35;98987.59;5112518;28;20055;-89
2022/06/06 20:11:27;;;;;;;2.40;1.60;;;;;;;17.46;93.74;98981.63;5113661;28;20046;-89
2022/06/06 20:14:00;;;;;;;2.75;1.33;;;;;;;17.41;92.75;98973.25;5127265;27;20107;-84